Billings, MT (59101)

4:32 AM MST on December 09, 2016 (GMT -0700)
Yellowstone RV Campground | | Change Station

Elev 3120 ft 45.76 °N, 108.48 °W | Updated 15 seconds ago

Overcast
Overcast
5.0 °F
Feels Like 5 °F
N
0.0
Wind Variable Wind from ENE
Gusts 0.0 mph

Today
High -- | Low -- °F
--% Chance of Precip.
Yesterday
High -- | Low -- °F
Precip. -- in
Pressure 30.50 in
Visibility 5.0 miles
Clouds Overcast 5000 ft
Windchill 5 °F
Dew Point -12 °F
Humidity 45%
Rainfall 0.00 in
Snow Depth Not available.
7:43 AM 4:29 PM
Waxing Gibbous, 73% visible
METAR KBIL 091053Z 03005KT 5SM -SN BR OVC050 M17/M19 A3027 RMK AO2 SLP326 P0001 T11671189
Pressure 30.50 in
Visibility 5.0 miles
Clouds Overcast 5000 ft
Windchill 5 °F
Dew Point -12 °F
Humidity 45%
Rainfall 0.00 in
Snow Depth Not available.
7:43 AM 4:29 PM
Waxing Gibbous, 73% visible
METAR KBIL 091053Z 03005KT 5SM -SN BR OVC050 M17/M19 A3027 RMK AO2 SLP326 P0001 T11671189

10-Day Weather Forecast

Almanac

Astronomy

Dec. 09, 2016 Rise Set
Actual Time
Civil Twilight
Nautical Twilight
Astronomical Twilight
Moon
Length of Visible Light
Length of Day
Tomorrow will be .
, % of the Moon is Illuminated

Today's Extremes

State Highs State Lows

Community

WunderPhotos

Upload Photos

1,956,378 photos uploaded!

WunderBlog® & News

Nearby

Air Quality

  Air Quality AQ Index Pollutant
Not available.

Snow Depth

Station Depth Elevation

Earthquake Activity

City Distance Mag. Time & Date
Minimum magnitude displayed is 2.5.

Coastal Water Temperatures

Place Temperature

Stations

Nearby Weather Stations

Station Location Temp. Windchill Dew Point Humidity Wind Precip. Elev Updated Type
                   

Watches & Warnings

There are currently no watches in effect.